sensor_id;sensor_type;location;lat;lon;timestamp;temperature;humidity
22202;DHT22;11266;51.522;6.302;2023-01-29T00:00:10;-3.00;99.90
22202;DHT22;11266;51.522;6.302;2023-01-29T00:01:06;-3.00;99.90
22202;DHT22;11266;51.522;6.302;2023-01-29T00:01:57;-3.10;99.90
22202;DHT22;11266;51.522;6.302;2023-01-29T00:02:45;-3.00;99.90
22202;DHT22;11266;51.522;6.302;2023-01-29T00:03:34;-3.00;99.90
22202;DHT22;11266;51.522;6.302;2023-01-29T00:04:23;-3.00;99.90
22202;DHT22;11266;51.522;6.302;2023-01-29T00:05:12;-3.00;99.90
22202;DHT22;11266;51.522;6.302;2023-01-29T00:05:59;-3.10;99.90
22202;DHT22;11266;51.522;6.302;2023-01-29T00:06:49;-3.00;99.90
22202;DHT22;11266;51.522;6.302;2023-01-29T00:07:34;-3.00;99.90
22202;DHT22;11266;51.522;6.302;2023-01-29T00:08:23;-3.10;99.90
22202;DHT22;11266;51.522;6.302;2023-01-29T00:09:11;-3.00;99.90
22202;DHT22;11266;51.522;6.302;2023-01-29T00:09:58;-3.00;99.90
22202;DHT22;11266;51.522;6.302;2023-01-29T00:10:46;-3.10;99.90
22202;DHT22;11266;51.522;6.302;2023-01-29T00:11:32;-3.10;99.90
22202;DHT22;11266;51.522;6.302;2023-01-29T00:12:20;-3.10;99.90
22202;DHT22;11266;51.522;6.302;2023-01-29T00:13:06;-3.10;99.90
22202;DHT22;11266;51.522;6.302;2023-01-29T00:14:02;-3.10;99.90
22202;DHT22;11266;51.522;6.302;2023-01-29T00:14:51;-3.10;99.90
22202;DHT22;11266;51.522;6.302;2023-01-29T00:15:39;-3.10;99.90
22202;DHT22;11266;51.522;6.302;2023-01-29T00:16:28;-3.10;99.90
22202;DHT22;11266;51.522;6.302;2023-01-29T00:17:14;-3.10;99.90
22202;DHT22;11266;51.522;6.302;2023-01-29T00:18:02;-3.10;99.90
22202;DHT22;11266;51.522;6.302;2023-01-29T00:18:51;-3.00;99.90
22202;DHT22;11266;51.522;6.302;2023-01-29T00:19:39;-3.10;99.90
22202;DHT22;11266;51.522;6.302;2023-01-29T00:20:29;-3.00;99.90
22202;DHT22;11266;51.522;6.302;2023-01-29T00:21:20;-3.00;99.90
22202;DHT22;11266;51.522;6.302;2023-01-29T00:22:14;-3.00;99.90
22202;DHT22;11266;51.522;6.302;2023-01-29T00:23:00;-3.00;99.90
22202;DHT22;11266;51.522;6.302;2023-01-29T00:23:53;-3.00;99.90
22202;DHT22;11266;51.522;6.302;2023-01-29T00:24:39;-3.00;99.90
22202;DHT22;11266;51.522;6.302;2023-01-29T00:25:28;-3.00;99.90
22202;DHT22;11266;51.522;6.302;2023-01-29T00:26:17;-3.00;99.90
22202;DHT22;11266;51.522;6.302;2023-01-29T00:27:03;-3.00;99.90
22202;DHT22;11266;51.522;6.302;2023-01-29T00:27:49;-3.00;99.90
22202;DHT22;11266;51.522;6.302;2023-01-29T00:28:35;-3.00;99.90
22202;DHT22;11266;51.522;6.302;2023-01-29T00:29:24;-3.00;99.90
22202;DHT22;11266;51.522;6.302;2023-01-29T00:30:12;-3.00;99.90
22202;DHT22;11266;51.522;6.302;2023-01-29T00:31:18;-3.00;99.90
22202;DHT22;11266;51.522;6.302;2023-01-29T00:32:04;-3.00;99.90
22202;DHT22;11266;51.522;6.302;2023-01-29T00:32:53;-2.90;99.90
22202;DHT22;11266;51.522;6.302;2023-01-29T00:33:39;-2.90;99.90
22202;DHT22;11266;51.522;6.302;2023-01-29T00:34:27;-2.90;99.90
22202;DHT22;11266;51.522;6.302;2023-01-29T00:35:13;-2.90;99.90
22202;DHT22;11266;51.522;6.302;2023-01-29T00:36:04;-2.90;99.90
22202;DHT22;11266;51.522;6.302;2023-01-29T00:36:52;-2.90;99.90
22202;DHT22;11266;51.522;6.302;2023-01-29T00:37:49;-2.90;99.90
22202;DHT22;11266;51.522;6.302;2023-01-29T00:38:35;-3.00;99.90
22202;DHT22;11266;51.522;6.302;2023-01-29T00:39:21;-3.00;99.90
22202;DHT22;11266;51.522;6.302;2023-01-29T00:40:10;-3.00;99.90
22202;DHT22;11266;51.522;6.302;2023-01-29T00:40:55;-3.00;99.90
22202;DHT22;11266;51.522;6.302;2023-01-29T00:42:00;-3.00;99.90
22202;DHT22;11266;51.522;6.302;2023-01-29T00:43:04;-3.00;99.90
22202;DHT22;11266;51.522;6.302;2023-01-29T00:44:08;-3.00;99.90
22202;DHT22;11266;51.522;6.302;2023-01-29T00:45:17;-3.00;99.90
22202;DHT22;11266;51.522;6.302;2023-01-29T00:46:05;-3.00;99.90
22202;DHT22;11266;51.522;6.302;2023-01-29T00:46:51;-3.10;99.90
22202;DHT22;11266;51.522;6.302;2023-01-29T00:47:37;-3.00;99.90
22202;DHT22;11266;51.522;6.302;2023-01-29T00:48:23;-3.00;99.90
22202;DHT22;11266;51.522;6.302;2023-01-29T00:49:11;-3.10;99.90
22202;DHT22;11266;51.522;6.302;2023-01-29T00:49:57;-3.00;99.90
22202;DHT22;11266;51.522;6.302;2023-01-29T00:50:45;-3.00;99.90
22202;DHT22;11266;51.522;6.302;2023-01-29T00:51:31;-3.00;99.90
22202;DHT22;11266;51.522;6.302;2023-01-29T00:52:17;-3.00;99.90
22202;DHT22;11266;51.522;6.302;2023-01-29T00:53:14;-3.00;99.90
22202;DHT22;11266;51.522;6.302;2023-01-29T00:54:00;-3.00;99.90
22202;DHT22;11266;51.522;6.302;2023-01-29T00:54:55;-3.00;99.90
22202;DHT22;11266;51.522;6.302;2023-01-29T00:55:40;-3.00;99.90
22202;DHT22;11266;51.522;6.302;2023-01-29T00:56:28;-3.00;99.90
22202;DHT22;11266;51.522;6.302;2023-01-29T00:57:16;-3.00;99.90
22202;DHT22;11266;51.522;6.302;2023-01-29T00:58:05;-3.00;99.90
22202;DHT22;11266;51.522;6.302;2023-01-29T00:58:54;-2.90;99.90
22202;DHT22;11266;51.522;6.302;2023-01-29T00:59:40;-3.00;99.90
22202;DHT22;11266;51.522;6.302;2023-01-29T01:00:32;-3.00;99.90
22202;DHT22;11266;51.522;6.302;2023-01-29T01:01:20;-3.00;99.90
22202;DHT22;11266;51.522;6.302;2023-01-29T01:02:29;-3.00;99.90
22202;DHT22;11266;51.522;6.302;2023-01-29T01:03:34;-3.00;99.90
22202;DHT22;11266;51.522;6.302;2023-01-29T01:04:29;-3.00;99.90
22202;DHT22;11266;51.522;6.302;2023-01-29T01:05:18;-3.10;99.90
22202;DHT22;11266;51.522;6.302;2023-01-29T01:06:05;-3.10;99.90
22202;DHT22;11266;51.522;6.302;2023-01-29T01:06:52;-3.10;99.90
22202;DHT22;11266;51.522;6.302;2023-01-29T01:07:37;-3.10;99.90
22202;DHT22;11266;51.522;6.302;2023-01-29T01:08:23;-3.10;99.90
22202;DHT22;11266;51.522;6.302;2023-01-29T01:09:36;-3.10;99.90
22202;DHT22;11266;51.522;6.302;2023-01-29T01:10:46;-3.10;99.90
22202;DHT22;11266;51.522;6.302;2023-01-29T01:11:32;-3.10;99.90
22202;DHT22;11266;51.522;6.302;2023-01-29T01:12:18;-3.10;99.90
22202;DHT22;11266;51.522;6.302;2023-01-29T01:13:06;-3.10;99.90
22202;DHT22;11266;51.522;6.302;2023-01-29T01:13:52;-3.10;99.90
22202;DHT22;11266;51.522;6.302;2023-01-29T01:14:49;-3.10;99.90
22202;DHT22;11266;51.522;6.302;2023-01-29T01:15:40;-3.10;99.90
22202;DHT22;11266;51.522;6.302;2023-01-29T01:16:26;-3.10;99.90
22202;DHT22;11266;51.522;6.302;2023-01-29T01:17:14;-3.10;99.90
22202;DHT22;11266;51.522;6.302;2023-01-29T01:18:00;-3.10;99.90
22202;DHT22;11266;51.522;6.302;2023-01-29T01:18:49;-3.10;99.90
22202;DHT22;11266;51.522;6.302;2023-01-29T01:19:37;-3.10;99.90
22202;DHT22;11266;51.522;6.302;2023-01-29T01:20:25;-3.10;99.90
22202;DHT22;11266;51.522;6.302;2023-01-29T01:21:11;-3.10;99.90
22202;DHT22;11266;51.522;6.302;2023-01-29T01:22:00;-3.10;99.90
22202;DHT22;11266;51.522;6.302;2023-01-29T01:22:45;-3.10;99.90
22202;DHT22;11266;51.522;6.302;2023-01-29T01:23:31;-3.10;99.90
22202;DHT22;11266;51.522;6.302;2023-01-29T01:24:20;-3.10;99.90
22202;DHT22;11266;51.522;6.302;2023-01-29T01:25:13;-3.10;99.90
22202;DHT22;11266;51.522;6.302;2023-01-29T01:26:07;-3.00;99.90
22202;DHT22;11266;51.522;6.302;2023-01-29T01:26:59;-3.00;99.90
22202;DHT22;11266;51.522;6.302;2023-01-29T01:27:59;-2.90;99.90
22202;DHT22;11266;51.522;6.302;2023-01-29T01:28:45;-2.90;99.90
22202;DHT22;11266;51.522;6.302;2023-01-29T01:29:33;-3.00;99.90
22202;DHT22;11266;51.522;6.302;2023-01-29T01:30:19;-3.00;99.90
22202;DHT22;11266;51.522;6.302;2023-01-29T01:31:16;-3.00;99.90
22202;DHT22;11266;51.522;6.302;2023-01-29T01:32:07;-3.00;99.90
22202;DHT22;11266;51.522;6.302;2023-01-29T01:32:56;-3.00;99.90
22202;DHT22;11266;51.522;6.302;2023-01-29T01:33:44;-3.10;99.90
22202;DHT22;11266;51.522;6.302;2023-01-29T01:34:30;-3.00;99.90
22202;DHT22;11266;51.522;6.302;2023-01-29T01:35:16;-3.00;99.90
22202;DHT22;11266;51.522;6.302;2023-01-29T01:36:04;-3.00;99.90
22202;DHT22;11266;51.522;6.302;2023-01-29T01:36:54;-3.00;99.90
22202;DHT22;11266;51.522;6.302;2023-01-29T01:37:48;-3.00;99.90
22202;DHT22;11266;51.522;6.302;2023-01-29T01:38:38;-3.10;99.90
22202;DHT22;11266;51.522;6.302;2023-01-29T01:39:28;-3.10;99.90
22202;DHT22;11266;51.522;6.302;2023-01-29T01:40:19;-3.00;99.90
22202;DHT22;11266;51.522;6.302;2023-01-29T01:41:22;-3.00;99.90
22202;DHT22;11266;51.522;6.302;2023-01-29T01:42:17;-3.00;99.90
22202;DHT22;11266;51.522;6.302;2023-01-29T01:43:19;-3.00;99.90
22202;DHT22;11266;51.522;6.302;2023-01-29T01:45:51;-3.00;99.90
22202;DHT22;11266;51.522;6.302;2023-01-29T01:46:43;-3.00;99.90
22202;DHT22;11266;51.522;6.302;2023-01-29T01:47:47;-3.00;99.90
22202;DHT22;11266;51.522;6.302;2023-01-29T01:48:34;-3.00;99.90
22202;DHT22;11266;51.522;6.302;2023-01-29T01:49:24;-3.00;99.90
22202;DHT22;11266;51.522;6.302;2023-01-29T01:50:29;-3.00;99.90
22202;DHT22;11266;51.522;6.302;2023-01-29T01:51:24;-3.00;99.90
22202;DHT22;11266;51.522;6.302;2023-01-29T01:52:14;-3.00;99.90
22202;DHT22;11266;51.522;6.302;2023-01-29T01:53:11;-3.00;99.90
22202;DHT22;11266;51.522;6.302;2023-01-29T01:54:10;-3.00;99.90
22202;DHT22;11266;51.522;6.302;2023-01-29T01:55:03;-3.00;99.90
22202;DHT22;11266;51.522;6.302;2023-01-29T01:55:56;-3.00;99.90
22202;DHT22;11266;51.522;6.302;2023-01-29T01:56:55;-3.10;99.90
22202;DHT22;11266;51.522;6.302;2023-01-29T01:58:06;-3.00;99.90
22202;DHT22;11266;51.522;6.302;2023-01-29T01:58:57;-3.00;99.90
22202;DHT22;11266;51.522;6.302;2023-01-29T01:59:49;-3.00;99.90
22202;DHT22;11266;51.522;6.302;2023-01-29T02:00:37;-3.00;99.90
22202;DHT22;11266;51.522;6.302;2023-01-29T02:01:26;-3.00;99.90
22202;DHT22;11266;51.522;6.302;2023-01-29T02:02:18;-3.00;99.90
22202;DHT22;11266;51.522;6.302;2023-01-29T02:03:29;-3.00;99.90
22202;DHT22;11266;51.522;6.302;2023-01-29T02:04:34;-3.00;99.90
22202;DHT22;11266;51.522;6.302;2023-01-29T02:05:39;-3.00;99.90
22202;DHT22;11266;51.522;6.302;2023-01-29T02:06:48;-3.00;99.90
22202;DHT22;11266;51.522;6.302;2023-01-29T02:07:52;-3.00;99.90
22202;DHT22;11266;51.522;6.302;2023-01-29T02:08:57;-3.00;99.90
22202;DHT22;11266;51.522;6.302;2023-01-29T02:10:18;-3.00;99.90
22202;DHT22;11266;51.522;6.302;2023-01-29T02:11:11;-3.00;99.90
22202;DHT22;11266;51.522;6.302;2023-01-29T02:11:57;-3.00;99.90
22202;DHT22;11266;51.522;6.302;2023-01-29T02:12:44;-3.00;99.90
22202;DHT22;11266;51.522;6.302;2023-01-29T02:13:30;-3.00;99.90
22202;DHT22;11266;51.522;6.302;2023-01-29T02:14:18;-3.00;99.90
22202;DHT22;11266;51.522;6.302;2023-01-29T02:15:07;-3.10;99.90
22202;DHT22;11266;51.522;6.302;2023-01-29T02:15:54;-3.00;99.90
22202;DHT22;11266;51.522;6.302;2023-01-29T02:16:39;-3.00;99.90
22202;DHT22;11266;51.522;6.302;2023-01-29T02:17:28;-3.10;99.90
22202;DHT22;11266;51.522;6.302;2023-01-29T02:18:20;-3.10;99.90
22202;DHT22;11266;51.522;6.302;2023-01-29T02:19:15;-3.10;99.90
22202;DHT22;11266;51.522;6.302;2023-01-29T02:20:18;-3.10;99.90
22202;DHT22;11266;51.522;6.302;2023-01-29T02:21:14;-3.10;99.90
22202;DHT22;11266;51.522;6.302;2023-01-29T02:23:31;-3.10;99.90
22202;DHT22;11266;51.522;6.302;2023-01-29T02:24:48;-3.10;99.90
22202;DHT22;11266;51.522;6.302;2023-01-29T02:27:08;-3.10;99.90
22202;DHT22;11266;51.522;6.302;2023-01-29T02:35:11;-3.10;99.90
22202;DHT22;11266;51.522;6.302;2023-01-29T02:40:57;-3.00;99.90
22202;DHT22;11266;51.522;6.302;2023-01-29T02:41:45;-2.90;99.90
22202;DHT22;11266;51.522;6.302;2023-01-29T02:43:14;-2.90;99.90
22202;DHT22;11266;51.522;6.302;2023-01-29T02:44:48;-2.90;99.90
22202;DHT22;11266;51.522;6.302;2023-01-29T02:46:55;-2.90;99.90
22202;DHT22;11266;51.522;6.302;2023-01-29T02:47:49;-2.80;99.90
22202;DHT22;11266;51.522;6.302;2023-01-29T02:49:07;-2.80;99.90
22202;DHT22;11266;51.522;6.302;2023-01-29T02:50:15;-2.90;99.90
22202;DHT22;11266;51.522;6.302;2023-01-29T02:51:11;-2.90;99.90
22202;DHT22;11266;51.522;6.302;2023-01-29T02:53:37;-2.80;99.90
22202;DHT22;11266;51.522;6.302;2023-01-29T02:55:15;-2.80;99.90
22202;DHT22;11266;51.522;6.302;2023-01-29T02:56:18;-2.80;99.90
22202;DHT22;11266;51.522;6.302;2023-01-29T02:59:21;-2.90;99.90
22202;DHT22;11266;51.522;6.302;2023-01-29T03:00:21;-2.90;99.90
22202;DHT22;11266;51.522;6.302;2023-01-29T03:01:30;-2.90;99.90
22202;DHT22;11266;51.522;6.302;2023-01-29T03:02:20;-2.90;99.90
22202;DHT22;11266;51.522;6.302;2023-01-29T03:03:32;-2.80;99.90
22202;DHT22;11266;51.522;6.302;2023-01-29T03:04:35;-2.80;99.90
22202;DHT22;11266;51.522;6.302;2023-01-29T03:05:39;-2.80;99.90
22202;DHT22;11266;51.522;6.302;2023-01-29T03:07:04;-2.80;99.90
22202;DHT22;11266;51.522;6.302;2023-01-29T03:08:07;-2.80;99.90
22202;DHT22;11266;51.522;6.302;2023-01-29T03:10:58;-2.80;99.90
22202;DHT22;11266;51.522;6.302;2023-01-29T03:12:03;-2.80;99.90
22202;DHT22;11266;51.522;6.302;2023-01-29T03:13:13;-2.90;99.90
22202;DHT22;11266;51.522;6.302;2023-01-29T03:14:11;-2.90;99.90
22202;DHT22;11266;51.522;6.302;2023-01-29T03:15:27;-2.90;99.90
22202;DHT22;11266;51.522;6.302;2023-01-29T03:17:57;-2.90;99.90
22202;DHT22;11266;51.522;6.302;2023-01-29T03:18:50;-2.90;99.90
22202;DHT22;11266;51.522;6.302;2023-01-29T03:19:42;-2.90;99.90
22202;DHT22;11266;51.522;6.302;2023-01-29T03:20:34;-2.90;99.90
22202;DHT22;11266;51.522;6.302;2023-01-29T03:21:49;-2.90;99.90
22202;DHT22;11266;51.522;6.302;2023-01-29T03:22:48;-2.90;99.90
22202;DHT22;11266;51.522;6.302;2023-01-29T03:23:38;-2.90;99.90
22202;DHT22;11266;51.522;6.302;2023-01-29T03:24:55;-2.90;99.90
22202;DHT22;11266;51.522;6.302;2023-01-29T03:26:00;-2.90;99.90
22202;DHT22;11266;51.522;6.302;2023-01-29T03:27:07;-2.90;99.90
22202;DHT22;11266;51.522;6.302;2023-01-29T03:28:17;-3.00;99.90
22202;DHT22;11266;51.522;6.302;2023-01-29T03:29:29;-3.00;99.90
22202;DHT22;11266;51.522;6.302;2023-01-29T03:30:39;-3.00;99.90
22202;DHT22;11266;51.522;6.302;2023-01-29T03:31:48;-3.00;99.90
22202;DHT22;11266;51.522;6.302;2023-01-29T03:32:53;-3.00;99.90
22202;DHT22;11266;51.522;6.302;2023-01-29T03:34:11;-3.00;99.90
22202;DHT22;11266;51.522;6.302;2023-01-29T03:35:04;-3.00;99.90
22202;DHT22;11266;51.522;6.302;2023-01-29T03:36:06;-3.00;99.90
22202;DHT22;11266;51.522;6.302;2023-01-29T03:37:02;-3.00;99.90
22202;DHT22;11266;51.522;6.302;2023-01-29T03:37:54;-2.90;99.90
22202;DHT22;11266;51.522;6.302;2023-01-29T03:38:45;-3.00;99.90
22202;DHT22;11266;51.522;6.302;2023-01-29T03:39:38;-3.00;99.90
22202;DHT22;11266;51.522;6.302;2023-01-29T03:40:28;-3.00;99.90
22202;DHT22;11266;51.522;6.302;2023-01-29T03:41:27;-2.90;99.90
22202;DHT22;11266;51.522;6.302;2023-01-29T03:42:27;-2.90;99.90
22202;DHT22;11266;51.522;6.302;2023-01-29T03:44:12;-2.90;99.90
22202;DHT22;11266;51.522;6.302;2023-01-29T03:45:00;-2.90;99.90
22202;DHT22;11266;51.522;6.302;2023-01-29T03:49:31;-2.80;99.90
22202;DHT22;11266;51.522;6.302;2023-01-29T03:50:29;-2.80;99.90
22202;DHT22;11266;51.522;6.302;2023-01-29T03:52:54;-2.80;99.90
22202;DHT22;11266;51.522;6.302;2023-01-29T03:53:52;-2.80;99.90
22202;DHT22;11266;51.522;6.302;2023-01-29T03:56:36;-2.80;99.90
22202;DHT22;11266;51.522;6.302;2023-01-29T04:00:44;-2.60;99.90
22202;DHT22;11266;51.522;6.302;2023-01-29T04:01:41;-2.60;99.90
22202;DHT22;11266;51.522;6.302;2023-01-29T04:03:12;-2.60;99.90
22202;DHT22;11266;51.522;6.302;2023-01-29T04:04:16;-2.60;99.90
22202;DHT22;11266;51.522;6.302;2023-01-29T04:05:07;-2.60;99.90
22202;DHT22;11266;51.522;6.302;2023-01-29T04:06:58;-2.50;99.90
22202;DHT22;11266;51.522;6.302;2023-01-29T04:07:46;-2.50;99.90
22202;DHT22;11266;51.522;6.302;2023-01-29T04:10:32;-2.50;99.90
22202;DHT22;11266;51.522;6.302;2023-01-29T04:11:38;-2.50;99.90
22202;DHT22;11266;51.522;6.302;2023-01-29T04:12:53;-2.50;99.90
22202;DHT22;11266;51.522;6.302;2023-01-29T04:13:58;-2.50;99.90
22202;DHT22;11266;51.522;6.302;2023-01-29T04:14:57;-2.40;99.90
22202;DHT22;11266;51.522;6.302;2023-01-29T04:15:57;-2.40;99.90
22202;DHT22;11266;51.522;6.302;2023-01-29T04:16:50;-2.40;99.90
22202;DHT22;11266;51.522;6.302;2023-01-29T04:17:47;-2.40;99.90
22202;DHT22;11266;51.522;6.302;2023-01-29T04:18:34;-2.40;99.90
22202;DHT22;11266;51.522;6.302;2023-01-29T04:19:21;-2.40;99.90
22202;DHT22;11266;51.522;6.302;2023-01-29T04:20:16;-2.40;99.90
22202;DHT22;11266;51.522;6.302;2023-01-29T04:21:17;-2.40;99.90
22202;DHT22;11266;51.522;6.302;2023-01-29T04:22:16;-2.30;99.90
22202;DHT22;11266;51.522;6.302;2023-01-29T04:23:31;-2.30;99.90
22202;DHT22;11266;51.522;6.302;2023-01-29T04:24:42;-2.30;99.90
22202;DHT22;11266;51.522;6.302;2023-01-29T04:26:00;-2.30;99.90
22202;DHT22;11266;51.522;6.302;2023-01-29T04:27:13;-2.20;99.90
22202;DHT22;11266;51.522;6.302;2023-01-29T04:28:51;-2.20;99.90
22202;DHT22;11266;51.522;6.302;2023-01-29T04:36:56;-2.10;99.90
22202;DHT22;11266;51.522;6.302;2023-01-29T04:38:19;-2.10;99.90
22202;DHT22;11266;51.522;6.302;2023-01-29T04:39:14;-2.00;99.90
22202;DHT22;11266;51.522;6.302;2023-01-29T04:40:20;-2.00;99.90
22202;DHT22;11266;51.522;6.302;2023-01-29T04:41:10;-2.00;99.90
22202;DHT22;11266;51.522;6.302;2023-01-29T04:43:13;-2.00;99.90
22202;DHT22;11266;51.522;6.302;2023-01-29T04:44:18;-2.00;99.90
22202;DHT22;11266;51.522;6.302;2023-01-29T04:45:38;-1.90;99.90
22202;DHT22;11266;51.522;6.302;2023-01-29T04:46:36;-1.90;99.90
22202;DHT22;11266;51.522;6.302;2023-01-29T04:47:49;-1.90;99.90
22202;DHT22;11266;51.522;6.302;2023-01-29T04:50:25;-1.80;99.90
22202;DHT22;11266;51.522;6.302;2023-01-29T04:51:48;-1.80;99.90
22202;DHT22;11266;51.522;6.302;2023-01-29T04:53:06;-1.80;99.90
22202;DHT22;11266;51.522;6.302;2023-01-29T04:55:46;-1.80;99.90
22202;DHT22;11266;51.522;6.302;2023-01-29T04:56:57;-1.80;99.90
22202;DHT22;11266;51.522;6.302;2023-01-29T04:58:07;-1.80;99.90
22202;DHT22;11266;51.522;6.302;2023-01-29T04:59:17;-1.80;99.90
22202;DHT22;11266;51.522;6.302;2023-01-29T05:00:39;-1.80;99.90
22202;DHT22;11266;51.522;6.302;2023-01-29T05:01:43;-1.80;99.90
22202;DHT22;11266;51.522;6.302;2023-01-29T05:02:49;-1.70;99.90
22202;DHT22;11266;51.522;6.302;2023-01-29T05:03:56;-1.70;99.90
22202;DHT22;11266;51.522;6.302;2023-01-29T05:05:13;-1.70;99.90
22202;DHT22;11266;51.522;6.302;2023-01-29T05:06:16;-1.70;99.90
22202;DHT22;11266;51.522;6.302;2023-01-29T05:07:28;-1.60;99.90
22202;DHT22;11266;51.522;6.302;2023-01-29T05:08:31;-1.60;99.90
22202;DHT22;11266;51.522;6.302;2023-01-29T05:09:33;-1.50;99.90
22202;DHT22;11266;51.522;6.302;2023-01-29T05:10:27;-1.50;99.90
22202;DHT22;11266;51.522;6.302;2023-01-29T05:11:13;-1.50;99.90
22202;DHT22;11266;51.522;6.302;2023-01-29T05:12:00;-1.60;99.90
22202;DHT22;11266;51.522;6.302;2023-01-29T05:12:50;-1.50;99.90
22202;DHT22;11266;51.522;6.302;2023-01-29T05:13:44;-1.50;99.90
22202;DHT22;11266;51.522;6.302;2023-01-29T05:14:33;-1.50;99.90
22202;DHT22;11266;51.522;6.302;2023-01-29T05:15:25;-1.50;99.90
22202;DHT22;11266;51.522;6.302;2023-01-29T05:17:22;-1.50;99.90
22202;DHT22;11266;51.522;6.302;2023-01-29T05:18:13;-1.50;99.90
22202;DHT22;11266;51.522;6.302;2023-01-29T05:18:59;-1.40;99.90
22202;DHT22;11266;51.522;6.302;2023-01-29T05:19:50;-1.40;99.90
22202;DHT22;11266;51.522;6.302;2023-01-29T05:20:40;-1.40;99.90
22202;DHT22;11266;51.522;6.302;2023-01-29T05:21:27;-1.50;99.90
22202;DHT22;11266;51.522;6.302;2023-01-29T05:22:24;-1.40;99.90
22202;DHT22;11266;51.522;6.302;2023-01-29T05:23:30;-1.40;99.90
22202;DHT22;11266;51.522;6.302;2023-01-29T05:24:21;-1.40;99.90
22202;DHT22;11266;51.522;6.302;2023-01-29T05:25:26;-1.30;99.90
22202;DHT22;11266;51.522;6.302;2023-01-29T05:26:18;-1.30;99.90
22202;DHT22;11266;51.522;6.302;2023-01-29T05:27:43;-1.30;99.90
22202;DHT22;11266;51.522;6.302;2023-01-29T05:28:58;-1.30;99.90
22202;DHT22;11266;51.522;6.302;2023-01-29T05:30:01;-1.30;99.90
22202;DHT22;11266;51.522;6.302;2023-01-29T05:31:01;-1.30;99.90
22202;DHT22;11266;51.522;6.302;2023-01-29T05:32:01;-1.30;99.90
22202;DHT22;11266;51.522;6.302;2023-01-29T05:32:58;-1.30;99.90
22202;DHT22;11266;51.522;6.302;2023-01-29T05:33:46;-1.30;99.90
22202;DHT22;11266;51.522;6.302;2023-01-29T05:34:38;-1.30;99.90
22202;DHT22;11266;51.522;6.302;2023-01-29T05:35:30;-1.30;99.90
22202;DHT22;11266;51.522;6.302;2023-01-29T05:36:19;-1.30;99.90
22202;DHT22;11266;51.522;6.302;2023-01-29T05:37:04;-1.30;99.90
22202;DHT22;11266;51.522;6.302;2023-01-29T05:37:50;-1.30;99.90
22202;DHT22;11266;51.522;6.302;2023-01-29T05:38:42;-1.30;99.90
22202;DHT22;11266;51.522;6.302;2023-01-29T05:39:38;-1.30;99.90
22202;DHT22;11266;51.522;6.302;2023-01-29T05:40:33;-1.30;99.90
22202;DHT22;11266;51.522;6.302;2023-01-29T05:41:24;-1.30;99.90
22202;DHT22;11266;51.522;6.302;2023-01-29T05:42:14;-1.30;99.90
22202;DHT22;11266;51.522;6.302;2023-01-29T05:43:04;-1.40;99.90
22202;DHT22;11266;51.522;6.302;2023-01-29T05:43:53;-1.30;99.90
22202;DHT22;11266;51.522;6.302;2023-01-29T05:44:39;-1.40;99.90
22202;DHT22;11266;51.522;6.302;2023-01-29T05:45:24;-1.40;99.90
22202;DHT22;11266;51.522;6.302;2023-01-29T05:46:10;-1.30;99.90
22202;DHT22;11266;51.522;6.302;2023-01-29T05:46:59;-1.40;99.90
22202;DHT22;11266;51.522;6.302;2023-01-29T05:47:47;-1.40;99.90
22202;DHT22;11266;51.522;6.302;2023-01-29T05:48:32;-1.30;99.90
22202;DHT22;11266;51.522;6.302;2023-01-29T05:49:20;-1.30;99.90
22202;DHT22;11266;51.522;6.302;2023-01-29T05:50:07;-1.30;99.90
22202;DHT22;11266;51.522;6.302;2023-01-29T05:51:03;-1.30;99.90
22202;DHT22;11266;51.522;6.302;2023-01-29T05:52:09;-1.30;99.90
22202;DHT22;11266;51.522;6.302;2023-01-29T05:53:01;-1.30;99.90
22202;DHT22;11266;51.522;6.302;2023-01-29T05:53:46;-1.20;99.90
22202;DHT22;11266;51.522;6.302;2023-01-29T05:54:34;-1.20;99.90
22202;DHT22;11266;51.522;6.302;2023-01-29T05:55:20;-1.30;99.90
22202;DHT22;11266;51.522;6.302;2023-01-29T05:56:06;-1.30;99.90
22202;DHT22;11266;51.522;6.302;2023-01-29T05:56:52;-1.20;99.90
22202;DHT22;11266;51.522;6.302;2023-01-29T05:57:41;-1.20;99.90
22202;DHT22;11266;51.522;6.302;2023-01-29T05:58:26;-1.20;99.90
22202;DHT22;11266;51.522;6.302;2023-01-29T05:59:15;-1.20;99.90
22202;DHT22;11266;51.522;6.302;2023-01-29T06:00:05;-1.20;99.90
22202;DHT22;11266;51.522;6.302;2023-01-29T06:00:54;-1.20;99.90
22202;DHT22;11266;51.522;6.302;2023-01-29T06:01:39;-1.20;99.90
22202;DHT22;11266;51.522;6.302;2023-01-29T06:02:32;-1.20;99.90
22202;DHT22;11266;51.522;6.302;2023-01-29T06:03:17;-1.20;99.90
22202;DHT22;11266;51.522;6.302;2023-01-29T06:04:06;-1.20;99.90
22202;DHT22;11266;51.522;6.302;2023-01-29T06:04:54;-1.20;99.90
22202;DHT22;11266;51.522;6.302;2023-01-29T06:05:40;-1.30;99.90
22202;DHT22;11266;51.522;6.302;2023-01-29T06:06:29;-1.20;99.90
22202;DHT22;11266;51.522;6.302;2023-01-29T06:07:18;-1.20;99.90
22202;DHT22;11266;51.522;6.302;2023-01-29T06:08:09;-1.30;99.90
22202;DHT22;11266;51.522;6.302;2023-01-29T06:08:55;-1.20;99.90
22202;DHT22;11266;51.522;6.302;2023-01-29T06:09:44;-1.20;99.90
22202;DHT22;11266;51.522;6.302;2023-01-29T06:10:30;-1.20;99.90
22202;DHT22;11266;51.522;6.302;2023-01-29T06:11:19;-1.20;99.90
22202;DHT22;11266;51.522;6.302;2023-01-29T06:12:05;-1.20;99.90
22202;DHT22;11266;51.522;6.302;2023-01-29T06:12:52;-1.20;99.90
22202;DHT22;11266;51.522;6.302;2023-01-29T06:13:38;-1.20;99.90
22202;DHT22;11266;51.522;6.302;2023-01-29T06:14:24;-1.20;99.90
22202;DHT22;11266;51.522;6.302;2023-01-29T06:15:11;-1.20;99.90
22202;DHT22;11266;51.522;6.302;2023-01-29T06:15:59;-1.20;99.90
22202;DHT22;11266;51.522;6.302;2023-01-29T06:16:48;-1.10;99.90
22202;DHT22;11266;51.522;6.302;2023-01-29T06:17:39;-1.10;99.90
22202;DHT22;11266;51.522;6.302;2023-01-29T06:18:25;-1.10;99.90
22202;DHT22;11266;51.522;6.302;2023-01-29T06:19:14;-1.20;99.90
22202;DHT22;11266;51.522;6.302;2023-01-29T06:19:59;-1.20;99.90
22202;DHT22;11266;51.522;6.302;2023-01-29T06:20:45;-1.10;99.90
22202;DHT22;11266;51.522;6.302;2023-01-29T06:21:31;-1.10;99.90
22202;DHT22;11266;51.522;6.302;2023-01-29T06:22:16;-1.10;99.90
22202;DHT22;11266;51.522;6.302;2023-01-29T06:23:02;-1.10;99.90
22202;DHT22;11266;51.522;6.302;2023-01-29T06:23:51;-1.10;99.90
22202;DHT22;11266;51.522;6.302;2023-01-29T06:24:42;-1.10;99.90
22202;DHT22;11266;51.522;6.302;2023-01-29T06:25:34;-1.10;99.90
22202;DHT22;11266;51.522;6.302;2023-01-29T06:26:19;-1.10;99.90
22202;DHT22;11266;51.522;6.302;2023-01-29T06:27:08;-1.10;99.90
22202;DHT22;11266;51.522;6.302;2023-01-29T06:27:54;-1.10;99.90
22202;DHT22;11266;51.522;6.302;2023-01-29T06:28:40;-1.10;99.90
22202;DHT22;11266;51.522;6.302;2023-01-29T06:29:25;-1.00;99.90
22202;DHT22;11266;51.522;6.302;2023-01-29T06:30:12;-1.00;99.90
22202;DHT22;11266;51.522;6.302;2023-01-29T06:30:58;-1.00;99.90
22202;DHT22;11266;51.522;6.302;2023-01-29T06:31:44;-1.10;99.90
22202;DHT22;11266;51.522;6.302;2023-01-29T06:32:33;-1.00;99.90
22202;DHT22;11266;51.522;6.302;2023-01-29T06:33:19;-1.00;99.90
22202;DHT22;11266;51.522;6.302;2023-01-29T06:34:06;-1.00;99.90
22202;DHT22;11266;51.522;6.302;2023-01-29T06:34:54;-1.00;99.90
22202;DHT22;11266;51.522;6.302;2023-01-29T06:35:40;-1.00;99.90
22202;DHT22;11266;51.522;6.302;2023-01-29T06:36:26;-1.00;99.90